Main page
METAR-TAF:

METAR-TAF

Airports :

Stockholm Arlanda Airport

Stockholm-Arlanda, Sweden

latitude: 59-39N, longitude: 017-57E, elevation: 38 m

Current weather observation

The report was made 35 minutes ago, at 11:50 UTC
Wind 8 kt from the East/Northeast, varying between North/Northeast and East/Southeast
Temperature 20°C
Humidity 53%
Pressure 1010 hPa
Visibility 10 km or more
Few clouds at a height of 4300 ft

METAR: ESSA 231150Z 06008KT 030V110 9999 FEW043 20/10 Q1010 NOSIG

Time: 14:25 (12:25 UTC)

Forecast

The report was made 55 minutes ago, at 11:30 UTC
Forecast valid from 23 at 12 UTC to 24 at 12 UTC
Wind 9 kt from the East/Northeast
Visibility 10 km or more
Scattered clouds at a height of 3500 ft

TAF: ESSA 231130Z 2312/2412 06009KT 9999 SCT035

Weather observations and forecasts of more than 4000 airports (METAR and TAF reports).

The available stations are represented by yellow and red dots on the map.

Hover mouse over dot to see the name of the station.

Then click to see weather observations and forecasts.

To change the map : click on the green buttons with a black cross to zoom in, on the green button with a dash to zoom out, or on the green arrows for adjacent maps.


METAR-TAF: